createdAt,value
2023-05-15T05:33:49.691Z,76.80
2023-05-15T05:36:51.462Z,76.80
2023-05-15T05:39:53.125Z,77.10
2023-05-15T05:42:54.874Z,77.20
2023-05-15T05:45:56.547Z,77.30
2023-05-15T05:48:58.474Z,77.30
2023-05-15T05:52:07.139Z,77.20
2023-05-15T05:55:09.727Z,77.10
2023-05-15T05:58:21.746Z,77.10
2023-05-15T06:01:27.634Z,77.00
2023-05-15T06:04:29.616Z,77.00
2023-05-15T06:07:31.378Z,77.00
2023-05-15T06:10:33.069Z,76.80
2023-05-15T06:13:34.897Z,76.80
2023-05-15T06:16:36.627Z,76.70
2023-05-15T06:19:38.334Z,76.80
2023-05-15T06:22:40.587Z,76.90
2023-05-15T06:25:42.532Z,77.10
2023-05-15T06:28:44.196Z,77.20
2023-05-15T06:31:45.900Z,77.20
2023-05-15T06:34:47.616Z,77.10
2023-05-15T06:37:50.329Z,76.80
2023-05-15T06:40:52.004Z,76.70
2023-05-15T06:43:55.057Z,76.60
2023-05-15T06:46:57.011Z,76.50
2023-05-15T06:49:58.735Z,76.40
2023-05-15T06:53:01.259Z,76.30
2023-05-15T06:56:03.057Z,76.20
2023-05-15T06:59:04.720Z,76.10
2023-05-15T07:02:06.591Z,75.80
2023-05-15T07:05:08.997Z,75.70
2023-05-15T07:08:10.753Z,75.60
2023-05-15T07:11:12.384Z,75.30
2023-05-15T07:14:14.293Z,75.00
2023-05-15T07:17:16.253Z,74.70
2023-05-15T07:20:17.991Z,74.70
2023-05-15T07:23:19.811Z,74.30
2023-05-15T07:26:34.196Z,73.60
2023-05-15T07:29:38.405Z,73.20
2023-05-15T07:32:40.323Z,72.60
2023-05-15T07:35:42.145Z,72.30
2023-05-15T07:38:43.801Z,71.80
2023-05-15T07:41:47.059Z,70.50
2023-05-15T07:44:49.590Z,69.80
2023-05-15T07:47:51.560Z,69.50
2023-05-15T07:50:53.889Z,68.10
2023-05-15T07:53:55.779Z,67.30
2023-05-15T07:56:58.534Z,66.90
2023-05-15T08:00:00.386Z,66.20
2023-05-15T08:03:02.250Z,65.50
2023-05-15T08:06:04.111Z,65.00
2023-05-15T08:09:05.963Z,65.00
2023-05-15T08:12:21.292Z,64.70
2023-05-15T08:15:24.469Z,64.40
2023-05-15T08:18:26.254Z,63.30
2023-05-15T08:21:28.131Z,63.00
2023-05-15T08:24:29.826Z,62.20
2023-05-15T08:27:31.490Z,62.00
2023-05-15T08:30:33.137Z,61.90
2023-05-15T08:33:34.947Z,60.80
2023-05-15T08:36:37.703Z,60.70
2023-05-15T08:39:40.056Z,59.70
2023-05-15T08:42:48.357Z,59.30
2023-05-15T08:45:50.276Z,58.90
2023-05-15T08:48:51.948Z,58.70
2023-05-15T08:51:54.076Z,58.60
2023-05-15T08:54:56.104Z,58.20
2023-05-15T08:57:58.141Z,57.50
2023-05-15T09:01:00.180Z,56.80
2023-05-15T09:04:02.317Z,56.30
2023-05-15T09:07:04.225Z,56.00
2023-05-15T09:10:06.473Z,55.70
2023-05-15T09:13:08.440Z,55.20
2023-05-15T09:16:10.527Z,55.00
2023-05-15T09:19:12.484Z,54.50
2023-05-15T09:22:18.030Z,53.80
2023-05-15T09:25:44.689Z,53.40
2023-05-15T09:28:46.435Z,53.20
2023-05-15T09:31:48.330Z,52.80
2023-05-15T09:34:50.016Z,52.30
2023-05-15T09:37:57.469Z,51.50
2023-05-15T09:41:06.333Z,51.20
2023-05-15T09:44:08.321Z,50.80
2023-05-15T09:47:11.411Z,50.60
2023-05-15T09:50:13.291Z,50.20
2023-05-15T09:56:22.827Z,49.80
2023-05-15T09:59:24.593Z,49.30
2023-05-15T10:02:32.879Z,48.90
2023-05-15T10:05:43.049Z,48.80
2023-05-15T10:08:52.472Z,48.40
2023-05-15T10:11:54.135Z,48.60
2023-05-15T10:14:56.721Z,48.30
2023-05-15T10:17:58.410Z,48.10
2023-05-15T10:21:04.116Z,47.90
2023-05-15T10:24:06.449Z,47.60
2023-05-15T10:27:08.524Z,47.10
2023-05-15T10:30:11.154Z,46.70
2023-05-15T10:33:12.945Z,46.50
2023-05-15T10:36:14.884Z,46.30
2023-05-15T10:39:16.550Z,46.10
2023-05-15T10:42:18.277Z,45.80
2023-05-15T10:45:20.085Z,45.90
2023-05-15T10:48:21.812Z,45.20
2023-05-15T10:51:29.092Z,45.30
2023-05-15T10:54:30.816Z,45.40
2023-05-15T10:57:32.457Z,45.30
2023-05-15T11:00:34.140Z,45.10
2023-05-15T11:03:48.155Z,45.00
2023-05-15T11:06:51.350Z,44.90
2023-05-15T11:09:53.655Z,45.00
2023-05-15T11:12:58.816Z,45.30
2023-05-15T11:16:00.740Z,45.40
2023-05-15T11:19:02.494Z,45.40
2023-05-15T11:22:26.398Z,45.40
2023-05-15T11:25:32.186Z,45.50
2023-05-15T11:28:41.985Z,45.60
2023-05-15T11:31:43.681Z,45.60
2023-05-15T11:34:45.351Z,45.70
2023-05-15T11:37:48.014Z,46.10
2023-05-15T11:40:55.102Z,46.40
2023-05-15T11:43:58.093Z,46.80
2023-05-15T11:46:59.829Z,46.60
2023-05-15T11:50:02.567Z,46.10
2023-05-15T11:53:06.288Z,45.90
2023-05-15T11:56:07.967Z,46.00
2023-05-15T11:59:10.298Z,45.90
2023-05-15T12:02:11.953Z,45.50
2023-05-15T12:05:14.124Z,45.50
2023-05-15T12:08:15.863Z,45.00
2023-05-15T12:11:17.541Z,44.90
2023-05-15T12:14:27.652Z,44.70
2023-05-15T12:17:29.361Z,44.60
2023-05-15T12:20:33.414Z,44.60
2023-05-15T12:23:35.304Z,44.90
2023-05-15T12:26:37.157Z,45.10
2023-05-15T12:29:39.394Z,45.80
2023-05-15T12:32:41.087Z,46.20
2023-05-15T12:35:44.610Z,46.10
2023-05-15T12:38:46.317Z,46.20
2023-05-15T12:41:49.925Z,46.50
2023-05-15T12:44:52.864Z,47.00
2023-05-15T12:47:54.573Z,47.30
2023-05-15T12:50:56.703Z,47.30
2023-05-15T12:53:58.898Z,46.80
2023-05-15T12:57:02.075Z,46.20
2023-05-15T13:00:05.304Z,46.10
2023-05-15T13:03:09.721Z,45.90
2023-05-15T13:06:11.534Z,46.20
2023-05-15T13:09:13.200Z,46.60
2023-05-15T13:12:14.906Z,47.20
2023-05-15T13:15:35.441Z,47.60
2023-05-15T13:18:37.189Z,48.00
2023-05-15T13:21:38.925Z,48.10
2023-05-15T13:24:40.784Z,48.00
2023-05-15T13:27:42.457Z,47.80
2023-05-15T13:30:44.213Z,47.50
2023-05-15T13:33:46.092Z,47.70
2023-05-15T13:36:47.834Z,47.70
2023-05-15T13:39:49.501Z,47.80
2023-05-15T13:42:51.249Z,47.80
2023-05-15T13:45:52.919Z,47.30
2023-05-15T13:48:54.613Z,46.20
2023-05-15T13:51:56.261Z,45.70
2023-05-15T13:54:58.204Z,45.20
2023-05-15T13:58:00.030Z,44.90
2023-05-15T14:01:04.638Z,45.00
2023-05-15T14:04:06.608Z,45.40
2023-05-15T14:07:08.329Z,45.50
2023-05-15T14:10:10.478Z,45.80
2023-05-15T14:13:12.510Z,46.10
2023-05-15T14:16:14.203Z,46.20
2023-05-15T14:19:16.133Z,46.40
2023-05-15T14:22:18.016Z,46.40
2023-05-15T14:25:20.021Z,46.10
2023-05-15T14:28:21.676Z,46.00
2023-05-15T14:31:23.511Z,46.10
2023-05-15T14:34:25.292Z,46.10
2023-05-15T14:37:27.901Z,46.20
2023-05-15T14:40:29.552Z,46.30
2023-05-15T14:43:31.407Z,46.40
2023-05-15T14:46:33.066Z,46.60
2023-05-15T14:49:35.790Z,46.80
2023-05-15T14:52:37.513Z,46.70
2023-05-15T14:55:40.479Z,46.30
2023-05-15T14:58:42.174Z,46.00
2023-05-15T15:01:43.828Z,45.70
2023-05-15T15:04:45.682Z,45.50
2023-05-15T15:08:06.622Z,45.80
2023-05-15T15:11:08.764Z,46.00
2023-05-15T15:14:10.647Z,46.20
2023-05-15T15:17:12.328Z,46.40
2023-05-15T15:20:16.052Z,46.20
2023-05-15T15:23:18.045Z,46.30
2023-05-15T15:26:19.768Z,46.30
2023-05-15T15:29:21.595Z,46.50
2023-05-15T15:32:23.259Z,46.40
2023-05-15T15:35:25.340Z,46.60
2023-05-15T15:38:27.068Z,47.10
2023-05-15T15:41:30.258Z,47.20
2023-05-15T15:44:33.998Z,47.20
2023-05-15T15:47:35.799Z,47.20
2023-05-15T15:50:37.640Z,47.10
2023-05-15T15:53:39.663Z,47.20
2023-05-15T15:56:42.831Z,47.30
2023-05-15T15:59:45.011Z,47.70
2023-05-15T16:02:46.791Z,48.10
2023-05-15T16:05:48.859Z,48.50
2023-05-15T16:08:50.927Z,48.80
2023-05-15T16:11:52.654Z,49.10
2023-05-15T16:14:54.743Z,49.30
2023-05-15T16:17:57.591Z,49.10
2023-05-15T16:20:59.360Z,49.10
2023-05-15T16:24:01.325Z,49.20
2023-05-15T16:27:03.725Z,48.60
2023-05-15T16:30:05.992Z,47.40
2023-05-15T16:33:08.932Z,46.20
2023-05-15T16:36:10.955Z,46.00
2023-05-15T16:39:12.643Z,46.50
2023-05-15T16:42:14.339Z,47.20
2023-05-15T16:45:16.362Z,47.60
2023-05-15T16:48:17.993Z,48.10
2023-05-15T16:51:19.732Z,48.50
2023-05-15T16:54:21.731Z,48.90
2023-05-15T16:57:23.460Z,49.30
2023-05-15T17:00:25.481Z,49.50
2023-05-15T17:03:27.716Z,49.40
2023-05-15T17:06:29.509Z,49.00
2023-05-15T17:09:31.240Z,48.60
2023-05-15T17:12:32.968Z,48.10
2023-05-15T17:15:34.906Z,47.50
2023-05-15T17:18:36.943Z,46.90
2023-05-15T17:21:38.645Z,46.80
2023-05-15T17:24:51.010Z,46.80
2023-05-15T17:27:53.374Z,47.10
2023-05-15T17:30:55.043Z,47.30
2023-05-15T17:33:57.305Z,47.60
2023-05-15T17:36:59.023Z,48.00
2023-05-15T17:40:00.737Z,48.40
2023-05-15T17:43:02.772Z,48.70
2023-05-15T17:46:05.683Z,48.90
2023-05-15T17:49:07.467Z,49.20
2023-05-15T17:52:09.252Z,49.40
2023-05-15T17:55:10.980Z,49.50
2023-05-15T17:58:12.716Z,49.50
2023-05-15T18:01:14.383Z,49.50
2023-05-15T18:04:16.335Z,49.60
2023-05-15T18:07:18.080Z,49.50
2023-05-15T18:10:19.816Z,49.60
2023-05-15T18:13:21.651Z,49.70
2023-05-15T18:16:23.427Z,49.80
2023-05-15T18:19:25.282Z,50.10
2023-05-15T18:22:27.145Z,50.30
2023-05-15T18:25:29.173Z,50.60
2023-05-15T18:28:31.068Z,50.70
2023-05-15T18:31:32.818Z,50.70
2023-05-15T18:34:34.652Z,50.70
2023-05-15T18:37:36.338Z,50.60
2023-05-15T18:40:38.040Z,50.70
2023-05-15T18:43:39.896Z,50.90
2023-05-15T18:46:41.807Z,51.10
2023-05-15T18:49:43.735Z,51.10
2023-05-15T18:52:45.416Z,51.30
2023-05-15T18:55:47.323Z,51.40
2023-05-15T18:58:49.000Z,51.60
2023-05-15T19:01:53.186Z,51.70
2023-05-15T19:04:55.068Z,52.00
2023-05-15T19:07:56.705Z,52.10
2023-05-15T19:11:01.231Z,52.30
2023-05-15T19:14:03.529Z,52.50
2023-05-15T19:17:05.463Z,52.60
2023-05-15T19:20:08.975Z,52.80
2023-05-15T19:23:12.775Z,53.10
2023-05-15T19:26:14.481Z,53.20
2023-05-15T19:29:16.252Z,53.60
2023-05-15T19:32:18.003Z,53.90
2023-05-15T19:35:19.943Z,54.20
2023-05-15T19:38:21.809Z,54.50
2023-05-15T19:41:23.872Z,54.70
2023-05-15T19:44:25.775Z,54.90
2023-05-15T19:47:27.568Z,55.20
2023-05-15T19:50:30.140Z,55.50
2023-05-15T19:53:32.851Z,55.70
2023-05-15T19:56:34.509Z,55.90
2023-05-15T19:59:36.573Z,56.10
2023-05-15T20:02:38.257Z,56.30
2023-05-15T20:05:41.201Z,56.50
2023-05-15T20:08:43.427Z,56.70
2023-05-15T20:11:45.304Z,56.70
2023-05-15T20:14:50.271Z,56.90
2023-05-15T20:17:51.977Z,57.10
2023-05-15T20:20:53.889Z,57.30
2023-05-15T20:23:56.330Z,57.50
2023-05-15T20:26:58.216Z,57.70
2023-05-15T20:30:01.006Z,57.90
2023-05-15T20:33:03.115Z,58.00
2023-05-15T20:36:05.310Z,58.20
2023-05-15T20:39:07.202Z,58.50
2023-05-15T20:42:08.971Z,58.70
2023-05-15T20:45:11.155Z,58.90
2023-05-15T20:48:13.834Z,59.10
2023-05-15T20:51:16.022Z,59.40
2023-05-15T20:54:17.837Z,59.60
2023-05-15T20:57:19.541Z,59.90
2023-05-15T21:00:21.223Z,60.10
2023-05-15T21:03:23.332Z,60.20
2023-05-15T21:06:25.126Z,60.40
2023-05-15T21:09:26.796Z,60.60
2023-05-15T21:12:28.510Z,60.80
2023-05-15T21:15:30.297Z,61.00
2023-05-15T21:18:32.013Z,61.30
2023-05-15T21:21:35.231Z,61.50
2023-05-15T21:24:37.225Z,61.80
2023-05-15T21:27:38.956Z,62.20
2023-05-15T21:30:40.631Z,62.30
2023-05-15T21:33:42.486Z,62.60
2023-05-15T21:36:44.184Z,62.80
2023-05-15T21:39:45.994Z,63.00
2023-05-15T21:42:47.720Z,63.20
2023-05-15T21:45:49.867Z,63.40
2023-05-15T21:48:51.514Z,63.50
2023-05-15T21:51:53.155Z,63.60
2023-05-15T21:54:55.124Z,63.90
2023-05-15T21:57:56.784Z,64.10
